sensor_id;sensor_type;location;lat;lon;timestamp;temperature;humidity
32400;DHT22;45045;45.440;9.178;2023-07-20T00:02:00;31.30;96.10
32400;DHT22;45045;45.440;9.178;2023-07-20T00:04:28;31.70;95.70
32400;DHT22;45045;45.440;9.178;2023-07-20T00:06:53;32.00;95.20
32400;DHT22;45045;45.440;9.178;2023-07-20T00:09:19;31.90;94.70
32400;DHT22;45045;45.440;9.178;2023-07-20T00:11:51;31.60;95.30
32400;DHT22;45045;45.440;9.178;2023-07-20T00:14:17;31.20;95.90
32400;DHT22;45045;45.440;9.178;2023-07-20T00:16:45;30.90;96.70
32400;DHT22;45045;45.440;9.178;2023-07-20T00:19:14;30.60;97.20
32400;DHT22;45045;45.440;9.178;2023-07-20T00:21:41;30.30;96.20
32400;DHT22;45045;45.440;9.178;2023-07-20T00:24:08;30.10;96.10
32400;DHT22;45045;45.440;9.178;2023-07-20T00:26:34;29.90;95.70
32400;DHT22;45045;45.440;9.178;2023-07-20T00:28:59;29.70;95.60
32400;DHT22;45045;45.440;9.178;2023-07-20T00:31:25;29.60;95.80
32400;DHT22;45045;45.440;9.178;2023-07-20T00:33:52;29.30;95.90
32400;DHT22;45045;45.440;9.178;2023-07-20T00:36:17;29.40;95.70
32400;DHT22;45045;45.440;9.178;2023-07-20T00:38:43;29.70;95.30
32400;DHT22;45045;45.440;9.178;2023-07-20T00:41:09;29.70;95.50
32400;DHT22;45045;45.440;9.178;2023-07-20T00:43:34;29.90;94.30
32400;DHT22;45045;45.440;9.178;2023-07-20T00:46:00;29.50;94.80
32400;DHT22;45045;45.440;9.178;2023-07-20T00:48:28;29.40;95.30
32400;DHT22;45045;45.440;9.178;2023-07-20T00:50:54;29.30;95.20
32400;DHT22;45045;45.440;9.178;2023-07-20T00:53:20;29.30;95.30
32400;DHT22;45045;45.440;9.178;2023-07-20T00:55:46;29.10;95.60
32400;DHT22;45045;45.440;9.178;2023-07-20T00:58:12;29.50;95.30
32400;DHT22;45045;45.440;9.178;2023-07-20T01:00:38;29.60;95.20
32400;DHT22;45045;45.440;9.178;2023-07-20T01:03:04;29.40;94.80
32400;DHT22;45045;45.440;9.178;2023-07-20T01:05:48;29.30;95.30
32400;DHT22;45045;45.440;9.178;2023-07-20T01:08:36;29.30;95.40
32400;DHT22;45045;45.440;9.178;2023-07-20T01:12:12;29.00;95.90
32400;DHT22;45045;45.440;9.178;2023-07-20T01:14:11;29.00;96.30
32400;DHT22;45045;45.440;9.178;2023-07-20T01:16:37;29.20;95.80
32400;DHT22;45045;45.440;9.178;2023-07-20T01:19:03;29.20;95.80
32400;DHT22;45045;45.440;9.178;2023-07-20T01:22:19;29.00;96.00
32400;DHT22;45045;45.440;9.178;2023-07-20T01:24:56;29.20;95.70
32400;DHT22;45045;45.440;9.178;2023-07-20T01:32:47;29.80;95.30
32400;DHT22;45045;45.440;9.178;2023-07-20T01:35:14;30.00;95.10
32400;DHT22;45045;45.440;9.178;2023-07-20T01:37:43;30.10;94.30
32400;DHT22;45045;45.440;9.178;2023-07-20T01:40:11;29.70;94.60
32400;DHT22;45045;45.440;9.178;2023-07-20T01:42:37;29.60;95.20
32400;DHT22;45045;45.440;9.178;2023-07-20T01:45:03;29.40;95.90
32400;DHT22;45045;45.440;9.178;2023-07-20T01:47:28;29.50;95.60
32400;DHT22;45045;45.440;9.178;2023-07-20T01:49:54;29.40;96.00
32400;DHT22;45045;45.440;9.178;2023-07-20T01:52:20;29.30;96.10
32400;DHT22;45045;45.440;9.178;2023-07-20T01:54:45;29.10;96.80
32400;DHT22;45045;45.440;9.178;2023-07-20T01:57:11;29.30;96.80
32400;DHT22;45045;45.440;9.178;2023-07-20T01:59:36;29.50;96.70
32400;DHT22;45045;45.440;9.178;2023-07-20T02:02:02;29.80;96.00
32400;DHT22;45045;45.440;9.178;2023-07-20T02:04:28;30.10;95.90
32400;DHT22;45045;45.440;9.178;2023-07-20T02:06:53;29.90;96.00
32400;DHT22;45045;45.440;9.178;2023-07-20T02:09:19;29.60;96.50
32400;DHT22;45045;45.440;9.178;2023-07-20T02:11:45;29.70;96.80
32400;DHT22;45045;45.440;9.178;2023-07-20T02:14:10;29.50;97.00
32400;DHT22;45045;45.440;9.178;2023-07-20T02:16:36;29.40;97.40
32400;DHT22;45045;45.440;9.178;2023-07-20T02:19:02;29.10;97.90
32400;DHT22;45045;45.440;9.178;2023-07-20T02:21:29;29.20;98.20
32400;DHT22;45045;45.440;9.178;2023-07-20T02:23:54;29.20;98.00
32400;DHT22;45045;45.440;9.178;2023-07-20T02:26:20;29.30;98.20
32400;DHT22;45045;45.440;9.178;2023-07-20T02:28:45;29.50;97.90
32400;DHT22;45045;45.440;9.178;2023-07-20T02:31:11;29.70;97.30
32400;DHT22;45045;45.440;9.178;2023-07-20T02:33:37;29.70;97.40
32400;DHT22;45045;45.440;9.178;2023-07-20T02:36:02;29.50;97.40
32400;DHT22;45045;45.440;9.178;2023-07-20T02:38:28;29.50;97.50
32400;DHT22;45045;45.440;9.178;2023-07-20T02:40:53;29.60;97.50
32400;DHT22;45045;45.440;9.178;2023-07-20T02:43:19;29.80;97.50
32400;DHT22;45045;45.440;9.178;2023-07-20T02:45:45;29.30;98.00
32400;DHT22;45045;45.440;9.178;2023-07-20T02:48:10;28.60;99.40
32400;DHT22;45045;45.440;9.178;2023-07-20T02:50:36;28.70;99.90
32400;DHT22;45045;45.440;9.178;2023-07-20T02:53:02;28.30;99.90
32400;DHT22;45045;45.440;9.178;2023-07-20T02:55:27;28.00;99.90
32400;DHT22;45045;45.440;9.178;2023-07-20T02:57:53;28.50;99.90
32400;DHT22;45045;45.440;9.178;2023-07-20T03:00:19;28.30;99.90
32400;DHT22;45045;45.440;9.178;2023-07-20T03:02:45;28.10;99.90
32400;DHT22;45045;45.440;9.178;2023-07-20T03:05:15;28.50;99.90
32400;DHT22;45045;45.440;9.178;2023-07-20T03:07:42;28.80;99.90
32400;DHT22;45045;45.440;9.178;2023-07-20T03:10:09;28.70;99.90
32400;DHT22;45045;45.440;9.178;2023-07-20T03:12:35;28.80;99.90
32400;DHT22;45045;45.440;9.178;2023-07-20T03:15:04;28.30;99.90
32400;DHT22;45045;45.440;9.178;2023-07-20T03:17:30;27.90;99.90
32400;DHT22;45045;45.440;9.178;2023-07-20T03:19:56;28.20;99.90
32400;DHT22;45045;45.440;9.178;2023-07-20T03:22:21;28.00;99.90
32400;DHT22;45045;45.440;9.178;2023-07-20T03:24:47;27.90;99.90
32400;DHT22;45045;45.440;9.178;2023-07-20T03:27:13;27.50;99.90
32400;DHT22;45045;45.440;9.178;2023-07-20T03:29:39;27.50;99.90
32400;DHT22;45045;45.440;9.178;2023-07-20T03:32:05;27.40;99.90
32400;DHT22;45045;45.440;9.178;2023-07-20T03:34:31;27.90;99.90
32400;DHT22;45045;45.440;9.178;2023-07-20T03:36:56;28.00;99.90
32400;DHT22;45045;45.440;9.178;2023-07-20T03:39:22;28.30;99.90
32400;DHT22;45045;45.440;9.178;2023-07-20T03:41:48;27.90;99.90
32400;DHT22;45045;45.440;9.178;2023-07-20T03:44:13;27.90;99.90
32400;DHT22;45045;45.440;9.178;2023-07-20T03:46:39;27.90;99.90
32400;DHT22;45045;45.440;9.178;2023-07-20T03:49:05;27.70;99.90
32400;DHT22;45045;45.440;9.178;2023-07-20T03:51:31;27.80;99.90
32400;DHT22;45045;45.440;9.178;2023-07-20T03:53:57;28.00;99.90
32400;DHT22;45045;45.440;9.178;2023-07-20T03:56:23;28.00;99.90
32400;DHT22;45045;45.440;9.178;2023-07-20T03:58:49;27.80;99.90
32400;DHT22;45045;45.440;9.178;2023-07-20T04:01:15;28.00;99.90
32400;DHT22;45045;45.440;9.178;2023-07-20T04:03:42;27.90;99.90
32400;DHT22;45045;45.440;9.178;2023-07-20T04:06:08;28.00;99.90
32400;DHT22;45045;45.440;9.178;2023-07-20T04:08:35;28.60;99.90
32400;DHT22;45045;45.440;9.178;2023-07-20T04:11:04;28.30;99.90
32400;DHT22;45045;45.440;9.178;2023-07-20T04:13:30;28.30;99.90
32400;DHT22;45045;45.440;9.178;2023-07-20T04:15:58;28.30;99.90
32400;DHT22;45045;45.440;9.178;2023-07-20T04:18:24;28.20;99.90
32400;DHT22;45045;45.440;9.178;2023-07-20T04:20:50;28.70;99.90
32400;DHT22;45045;45.440;9.178;2023-07-20T04:23:15;28.90;99.90
32400;DHT22;45045;45.440;9.178;2023-07-20T04:25:42;29.20;99.90
32400;DHT22;45045;45.440;9.178;2023-07-20T04:28:08;29.30;99.90
32400;DHT22;45045;45.440;9.178;2023-07-20T04:30:37;29.50;99.90
32400;DHT22;45045;45.440;9.178;2023-07-20T04:33:03;29.40;99.90
32400;DHT22;45045;45.440;9.178;2023-07-20T04:35:48;29.30;99.90
32400;DHT22;45045;45.440;9.178;2023-07-20T04:38:15;29.60;99.90
32400;DHT22;45045;45.440;9.178;2023-07-20T04:40:46;29.80;99.90
32400;DHT22;45045;45.440;9.178;2023-07-20T04:43:12;29.90;99.50
32400;DHT22;45045;45.440;9.178;2023-07-20T04:45:38;29.90;99.30
32400;DHT22;45045;45.440;9.178;2023-07-20T04:48:13;30.00;99.20
32400;DHT22;45045;45.440;9.178;2023-07-20T04:50:40;30.10;99.00
32400;DHT22;45045;45.440;9.178;2023-07-20T04:53:07;30.10;98.80
32400;DHT22;45045;45.440;9.178;2023-07-20T04:55:32;30.20;98.60
32400;DHT22;45045;45.440;9.178;2023-07-20T04:58:02;30.30;98.50
32400;DHT22;45045;45.440;9.178;2023-07-20T05:00:29;30.30;98.40
32400;DHT22;45045;45.440;9.178;2023-07-20T05:02:55;30.30;98.30
32400;DHT22;45045;45.440;9.178;2023-07-20T05:05:21;30.20;97.20
32400;DHT22;45045;45.440;9.178;2023-07-20T05:07:46;30.00;98.50
32400;DHT22;45045;45.440;9.178;2023-07-20T05:10:12;30.20;98.40
32400;DHT22;45045;45.440;9.178;2023-07-20T05:12:37;30.30;98.30
32400;DHT22;45045;45.440;9.178;2023-07-20T05:15:04;30.30;97.40
32400;DHT22;45045;45.440;9.178;2023-07-20T05:17:29;30.30;98.00
32400;DHT22;45045;45.440;9.178;2023-07-20T05:19:55;30.20;97.70
32400;DHT22;45045;45.440;9.178;2023-07-20T05:22:21;30.10;97.70
32400;DHT22;45045;45.440;9.178;2023-07-20T05:24:46;30.20;97.70
32400;DHT22;45045;45.440;9.178;2023-07-20T05:27:12;30.00;97.80
32400;DHT22;45045;45.440;9.178;2023-07-20T05:29:42;30.00;97.90
32400;DHT22;45045;45.440;9.178;2023-07-20T05:32:08;29.80;98.00
32400;DHT22;45045;45.440;9.178;2023-07-20T05:34:35;30.00;98.00
32400;DHT22;45045;45.440;9.178;2023-07-20T05:37:00;29.90;97.80
32400;DHT22;45045;45.440;9.178;2023-07-20T05:39:26;29.40;98.80
32400;DHT22;45045;45.440;9.178;2023-07-20T05:41:52;28.90;99.70
32400;DHT22;45045;45.440;9.178;2023-07-20T05:44:17;28.80;99.90
32400;DHT22;45045;45.440;9.178;2023-07-20T05:46:43;29.00;99.90
32400;DHT22;45045;45.440;9.178;2023-07-20T05:49:10;29.00;99.90
32400;DHT22;45045;45.440;9.178;2023-07-20T05:51:35;28.80;99.90
32400;DHT22;45045;45.440;9.178;2023-07-20T05:54:01;28.80;99.90
32400;DHT22;45045;45.440;9.178;2023-07-20T05:56:27;28.70;99.90
32400;DHT22;45045;45.440;9.178;2023-07-20T05:58:53;29.10;99.90
32400;DHT22;45045;45.440;9.178;2023-07-20T06:01:18;29.10;99.90
32400;DHT22;45045;45.440;9.178;2023-07-20T06:03:44;29.40;99.90
32400;DHT22;45045;45.440;9.178;2023-07-20T06:06:10;29.50;99.90
32400;DHT22;45045;45.440;9.178;2023-07-20T06:08:37;29.50;98.70
32400;DHT22;45045;45.440;9.178;2023-07-20T06:11:03;29.50;98.70
32400;DHT22;45045;45.440;9.178;2023-07-20T06:13:29;29.30;98.70
32400;DHT22;45045;45.440;9.178;2023-07-20T06:15:54;28.90;99.50
32400;DHT22;45045;45.440;9.178;2023-07-20T06:18:24;29.10;99.90
32400;DHT22;45045;45.440;9.178;2023-07-20T06:20:50;29.00;99.60
32400;DHT22;45045;45.440;9.178;2023-07-20T06:23:17;29.20;99.30
32400;DHT22;45045;45.440;9.178;2023-07-20T06:25:43;29.20;99.60
32400;DHT22;45045;45.440;9.178;2023-07-20T06:28:09;29.60;99.50
32400;DHT22;45045;45.440;9.178;2023-07-20T06:30:35;29.60;98.50
32400;DHT22;45045;45.440;9.178;2023-07-20T06:33:01;29.80;98.80
32400;DHT22;45045;45.440;9.178;2023-07-20T06:35:26;30.00;98.60
32400;DHT22;45045;45.440;9.178;2023-07-20T06:37:52;30.10;98.60
32400;DHT22;45045;45.440;9.178;2023-07-20T06:40:18;30.10;98.20
32400;DHT22;45045;45.440;9.178;2023-07-20T06:42:44;30.20;98.10
32400;DHT22;45045;45.440;9.178;2023-07-20T06:45:09;30.20;98.10
32400;DHT22;45045;45.440;9.178;2023-07-20T06:47:38;30.30;98.10
32400;DHT22;45045;45.440;9.178;2023-07-20T06:50:04;30.30;97.90
32400;DHT22;45045;45.440;9.178;2023-07-20T06:52:30;30.40;97.80
32400;DHT22;45045;45.440;9.178;2023-07-20T06:54:55;30.40;97.80
32400;DHT22;45045;45.440;9.178;2023-07-20T06:57:21;30.40;97.90
32400;DHT22;45045;45.440;9.178;2023-07-20T06:59:47;30.40;97.90
32400;DHT22;45045;45.440;9.178;2023-07-20T07:02:13;30.50;98.00
32400;DHT22;45045;45.440;9.178;2023-07-20T07:04:39;30.60;97.70
32400;DHT22;45045;45.440;9.178;2023-07-20T07:07:05;30.70;97.90
32400;DHT22;45045;45.440;9.178;2023-07-20T07:09:31;30.70;97.90
32400;DHT22;45045;45.440;9.178;2023-07-20T07:11:57;30.70;97.70
32400;DHT22;45045;45.440;9.178;2023-07-20T07:14:22;30.80;97.90
32400;DHT22;45045;45.440;9.178;2023-07-20T07:16:48;30.80;98.10
32400;DHT22;45045;45.440;9.178;2023-07-20T07:19:13;30.80;97.70
32400;DHT22;45045;45.440;9.178;2023-07-20T07:21:39;30.80;97.60
32400;DHT22;45045;45.440;9.178;2023-07-20T07:24:05;30.90;97.90
32400;DHT22;45045;45.440;9.178;2023-07-20T07:26:32;30.90;97.70
32400;DHT22;45045;45.440;9.178;2023-07-20T07:28:58;30.90;97.80
32400;DHT22;45045;45.440;9.178;2023-07-20T07:31:25;30.90;97.70
32400;DHT22;45045;45.440;9.178;2023-07-20T07:33:51;30.90;97.60
32400;DHT22;45045;45.440;9.178;2023-07-20T07:36:16;31.00;97.50
32400;DHT22;45045;45.440;9.178;2023-07-20T07:38:42;31.00;97.40
32400;DHT22;45045;45.440;9.178;2023-07-20T07:41:08;31.00;97.20
32400;DHT22;45045;45.440;9.178;2023-07-20T07:43:34;31.00;97.30
32400;DHT22;45045;45.440;9.178;2023-07-20T07:46:00;31.10;97.30
32400;DHT22;45045;45.440;9.178;2023-07-20T07:48:27;31.10;97.30
32400;DHT22;45045;45.440;9.178;2023-07-20T07:50:54;31.10;97.20
32400;DHT22;45045;45.440;9.178;2023-07-20T07:53:19;31.20;97.20
32400;DHT22;45045;45.440;9.178;2023-07-20T07:55:47;31.20;97.10
32400;DHT22;45045;45.440;9.178;2023-07-20T07:58:14;31.20;97.10
32400;DHT22;45045;45.440;9.178;2023-07-20T08:00:39;31.20;97.00
32400;DHT22;45045;45.440;9.178;2023-07-20T08:03:08;31.30;96.90
32400;DHT22;45045;45.440;9.178;2023-07-20T08:05:34;31.30;96.80
32400;DHT22;45045;45.440;9.178;2023-07-20T08:08:01;31.30;96.70
32400;DHT22;45045;45.440;9.178;2023-07-20T08:10:26;31.30;96.60
32400;DHT22;45045;45.440;9.178;2023-07-20T08:12:52;31.40;96.50
32400;DHT22;45045;45.440;9.178;2023-07-20T08:15:18;31.40;96.30
32400;DHT22;45045;45.440;9.178;2023-07-20T08:17:43;31.40;96.30
32400;DHT22;45045;45.440;9.178;2023-07-20T08:20:11;31.50;96.30
32400;DHT22;45045;45.440;9.178;2023-07-20T08:22:38;31.40;96.40
32400;DHT22;45045;45.440;9.178;2023-07-20T08:25:05;31.50;96.40
32400;DHT22;45045;45.440;9.178;2023-07-20T08:27:31;31.50;96.30
32400;DHT22;45045;45.440;9.178;2023-07-20T08:29:56;31.50;96.50
32400;DHT22;45045;45.440;9.178;2023-07-20T08:32:22;31.50;96.10
32400;DHT22;45045;45.440;9.178;2023-07-20T08:34:48;31.50;96.00
32400;DHT22;45045;45.440;9.178;2023-07-20T08:37:13;31.60;96.00
32400;DHT22;45045;45.440;9.178;2023-07-20T08:39:39;31.60;96.10
32400;DHT22;45045;45.440;9.178;2023-07-20T08:42:05;31.60;95.90
32400;DHT22;45045;45.440;9.178;2023-07-20T08:44:35;31.70;96.00
32400;DHT22;45045;45.440;9.178;2023-07-20T08:47:02;31.70;95.70
32400;DHT22;45045;45.440;9.178;2023-07-20T08:49:31;31.90;95.70
32400;DHT22;45045;45.440;9.178;2023-07-20T08:51:57;31.90;95.40
32400;DHT22;45045;45.440;9.178;2023-07-20T08:54:25;31.80;95.50
32400;DHT22;45045;45.440;9.178;2023-07-20T08:56:54;31.80;95.30
32400;DHT22;45045;45.440;9.178;2023-07-20T08:59:22;31.90;95.50
32400;DHT22;45045;45.440;9.178;2023-07-20T09:01:48;32.00;95.30
32400;DHT22;45045;45.440;9.178;2023-07-20T09:04:15;32.00;95.20
32400;DHT22;45045;45.440;9.178;2023-07-20T09:06:41;32.10;95.30
32400;DHT22;45045;45.440;9.178;2023-07-20T09:09:07;32.20;94.80
32400;DHT22;45045;45.440;9.178;2023-07-20T09:11:33;32.00;94.90
32400;DHT22;45045;45.440;9.178;2023-07-20T09:14:06;31.90;95.00
32400;DHT22;45045;45.440;9.178;2023-07-20T09:16:32;32.00;95.10
32400;DHT22;45045;45.440;9.178;2023-07-20T09:18:58;32.10;94.90
32400;DHT22;45045;45.440;9.178;2023-07-20T09:21:29;32.20;94.60
32400;DHT22;45045;45.440;9.178;2023-07-20T09:23:56;32.30;94.70
32400;DHT22;45045;45.440;9.178;2023-07-20T09:26:22;32.20;94.40
32400;DHT22;45045;45.440;9.178;2023-07-20T09:28:52;32.20;94.80
32400;DHT22;45045;45.440;9.178;2023-07-20T09:31:22;32.20;94.20
32400;DHT22;45045;45.440;9.178;2023-07-20T09:33:49;32.30;94.10
32400;DHT22;45045;45.440;9.178;2023-07-20T09:36:15;32.20;94.40
32400;DHT22;45045;45.440;9.178;2023-07-20T09:38:44;32.30;93.50
32400;DHT22;45045;45.440;9.178;2023-07-20T09:41:14;32.30;93.00
32400;DHT22;45045;45.440;9.178;2023-07-20T09:43:43;32.30;91.60
32400;DHT22;45045;45.440;9.178;2023-07-20T09:46:10;32.20;92.50
32400;DHT22;45045;45.440;9.178;2023-07-20T09:48:36;32.40;90.60
32400;DHT22;45045;45.440;9.178;2023-07-20T09:51:02;32.60;91.10
32400;DHT22;45045;45.440;9.178;2023-07-20T09:53:30;32.60;91.00
32400;DHT22;45045;45.440;9.178;2023-07-20T09:55:57;32.70;91.40
32400;DHT22;45045;45.440;9.178;2023-07-20T09:58:25;32.80;91.20
32400;DHT22;45045;45.440;9.178;2023-07-20T10:00:51;32.80;90.90
32400;DHT22;45045;45.440;9.178;2023-07-20T10:03:20;32.70;90.40
32400;DHT22;45045;45.440;9.178;2023-07-20T10:05:51;32.70;91.00
32400;DHT22;45045;45.440;9.178;2023-07-20T10:08:17;32.80;90.80
32400;DHT22;45045;45.440;9.178;2023-07-20T10:10:44;32.90;90.90
32400;DHT22;45045;45.440;9.178;2023-07-20T10:13:18;32.90;91.00
32400;DHT22;45045;45.440;9.178;2023-07-20T10:15:46;32.90;91.20
32400;DHT22;45045;45.440;9.178;2023-07-20T10:20:51;32.80;90.90
32400;DHT22;45045;45.440;9.178;2023-07-20T10:23:17;33.00;90.40
32400;DHT22;45045;45.440;9.178;2023-07-20T10:25:43;33.10;90.60
32400;DHT22;45045;45.440;9.178;2023-07-20T10:28:10;33.10;90.50
32400;DHT22;45045;45.440;9.178;2023-07-20T10:30:37;33.20;90.30
32400;DHT22;45045;45.440;9.178;2023-07-20T10:33:03;33.40;90.00
32400;DHT22;45045;45.440;9.178;2023-07-20T10:35:29;33.30;90.20
32400;DHT22;45045;45.440;9.178;2023-07-20T10:38:04;33.30;90.30
32400;DHT22;45045;45.440;9.178;2023-07-20T10:40:38;33.30;90.40
32400;DHT22;45045;45.440;9.178;2023-07-20T10:43:06;33.30;90.20
32400;DHT22;45045;45.440;9.178;2023-07-20T10:45:48;33.20;90.00
32400;DHT22;45045;45.440;9.178;2023-07-20T10:48:31;33.30;90.00
32400;DHT22;45045;45.440;9.178;2023-07-20T10:51:12;33.40;90.20
32400;DHT22;45045;45.440;9.178;2023-07-20T10:53:42;33.40;90.20
32400;DHT22;45045;45.440;9.178;2023-07-20T10:56:14;33.30;90.40
32400;DHT22;45045;45.440;9.178;2023-07-20T10:58:41;33.50;90.40
32400;DHT22;45045;45.440;9.178;2023-07-20T11:01:08;33.50;90.30
32400;DHT22;45045;45.440;9.178;2023-07-20T11:03:38;33.50;90.10
32400;DHT22;45045;45.440;9.178;2023-07-20T11:11:26;33.30;91.80
32400;DHT22;45045;45.440;9.178;2023-07-20T11:14:08;33.50;91.30
32400;DHT22;45045;45.440;9.178;2023-07-20T11:16:45;33.50;91.80
32400;DHT22;45045;45.440;9.178;2023-07-20T11:19:19;33.40;91.70
32400;DHT22;45045;45.440;9.178;2023-07-20T11:21:46;33.30;92.40
32400;DHT22;45045;45.440;9.178;2023-07-20T11:24:13;33.60;90.90
32400;DHT22;45045;45.440;9.178;2023-07-20T11:26:43;33.60;91.00
32400;DHT22;45045;45.440;9.178;2023-07-20T11:29:09;33.50;90.30
32400;DHT22;45045;45.440;9.178;2023-07-20T11:31:36;33.40;91.00
32400;DHT22;45045;45.440;9.178;2023-07-20T11:34:02;33.60;90.90
32400;DHT22;45045;45.440;9.178;2023-07-20T11:36:28;33.60;90.50
32400;DHT22;45045;45.440;9.178;2023-07-20T11:38:54;33.50;90.10
32400;DHT22;45045;45.440;9.178;2023-07-20T11:41:19;33.50;88.80
32400;DHT22;45045;45.440;9.178;2023-07-20T11:43:45;33.60;88.90
32400;DHT22;45045;45.440;9.178;2023-07-20T11:46:11;33.60;90.30
32400;DHT22;45045;45.440;9.178;2023-07-20T11:48:37;33.50;90.00
32400;DHT22;45045;45.440;9.178;2023-07-20T11:51:02;33.60;89.70
32400;DHT22;45045;45.440;9.178;2023-07-20T11:53:28;33.70;88.30
32400;DHT22;45045;45.440;9.178;2023-07-20T11:55:54;33.90;88.50
32400;DHT22;45045;45.440;9.178;2023-07-20T11:58:21;33.70;89.80
32400;DHT22;45045;45.440;9.178;2023-07-20T12:00:47;33.90;87.40
32400;DHT22;45045;45.440;9.178;2023-07-20T12:03:13;33.80;88.30
32400;DHT22;45045;45.440;9.178;2023-07-20T12:05:39;34.00;86.80
32400;DHT22;45045;45.440;9.178;2023-07-20T12:08:05;33.80;88.10
32400;DHT22;45045;45.440;9.178;2023-07-20T12:10:31;33.80;87.80
32400;DHT22;45045;45.440;9.178;2023-07-20T12:13:03;33.80;88.20
32400;DHT22;45045;45.440;9.178;2023-07-20T12:15:32;33.70;87.60
32400;DHT22;45045;45.440;9.178;2023-07-20T12:17:59;33.80;86.30
32400;DHT22;45045;45.440;9.178;2023-07-20T12:22:57;33.90;86.50
32400;DHT22;45045;45.440;9.178;2023-07-20T12:25:23;34.00;86.10
32400;DHT22;45045;45.440;9.178;2023-07-20T12:27:49;34.00;85.20
32400;DHT22;45045;45.440;9.178;2023-07-20T12:30:14;33.90;87.50
32400;DHT22;45045;45.440;9.178;2023-07-20T12:32:40;34.00;86.10
32400;DHT22;45045;45.440;9.178;2023-07-20T12:35:06;34.10;86.50
32400;DHT22;45045;45.440;9.178;2023-07-20T12:37:32;34.10;86.60
32400;DHT22;45045;45.440;9.178;2023-07-20T12:39:58;34.10;85.80
32400;DHT22;45045;45.440;9.178;2023-07-20T12:42:23;34.30;85.40
32400;DHT22;45045;45.440;9.178;2023-07-20T12:44:49;34.20;86.20
32400;DHT22;45045;45.440;9.178;2023-07-20T12:47:17;34.30;84.90
32400;DHT22;45045;45.440;9.178;2023-07-20T12:49:43;34.30;85.30
32400;DHT22;45045;45.440;9.178;2023-07-20T12:52:10;34.40;85.00
32400;DHT22;45045;45.440;9.178;2023-07-20T12:54:36;34.50;85.10
32400;DHT22;45045;45.440;9.178;2023-07-20T12:57:02;34.60;84.30
32400;DHT22;45045;45.440;9.178;2023-07-20T12:59:29;34.60;83.50
32400;DHT22;45045;45.440;9.178;2023-07-20T13:01:54;34.60;84.10
32400;DHT22;45045;45.440;9.178;2023-07-20T13:04:20;34.50;83.30
32400;DHT22;45045;45.440;9.178;2023-07-20T13:06:46;34.40;82.30
32400;DHT22;45045;45.440;9.178;2023-07-20T13:09:11;34.60;82.20
32400;DHT22;45045;45.440;9.178;2023-07-20T13:11:37;34.70;81.70
32400;DHT22;45045;45.440;9.178;2023-07-20T13:14:03;34.80;80.50
32400;DHT22;45045;45.440;9.178;2023-07-20T13:16:28;34.90;80.40
32400;DHT22;45045;45.440;9.178;2023-07-20T13:18:54;34.90;80.60
32400;DHT22;45045;45.440;9.178;2023-07-20T13:21:19;34.90;79.50
32400;DHT22;45045;45.440;9.178;2023-07-20T13:23:48;34.80;79.60
32400;DHT22;45045;45.440;9.178;2023-07-20T13:26:17;35.00;78.90
32400;DHT22;45045;45.440;9.178;2023-07-20T13:28:42;34.90;79.50
32400;DHT22;45045;45.440;9.178;2023-07-20T13:31:08;34.80;80.40
32400;DHT22;45045;45.440;9.178;2023-07-20T13:33:35;34.80;80.20
32400;DHT22;45045;45.440;9.178;2023-07-20T13:36:01;34.90;79.50
32400;DHT22;45045;45.440;9.178;2023-07-20T13:38:27;34.90;78.80
32400;DHT22;45045;45.440;9.178;2023-07-20T13:40:52;34.80;80.10
32400;DHT22;45045;45.440;9.178;2023-07-20T13:43:18;34.70;81.40
32400;DHT22;45045;45.440;9.178;2023-07-20T13:45:44;34.70;81.50
32400;DHT22;45045;45.440;9.178;2023-07-20T13:48:09;34.70;81.30
32400;DHT22;45045;45.440;9.178;2023-07-20T13:50:35;34.70;81.90
32400;DHT22;45045;45.440;9.178;2023-07-20T13:53:00;34.70;82.00
32400;DHT22;45045;45.440;9.178;2023-07-20T13:55:28;34.60;82.80
32400;DHT22;45045;45.440;9.178;2023-07-20T13:57:56;34.60;82.20
32400;DHT22;45045;45.440;9.178;2023-07-20T14:00:22;34.60;82.00
32400;DHT22;45045;45.440;9.178;2023-07-20T14:02:47;34.80;81.30
32400;DHT22;45045;45.440;9.178;2023-07-20T14:05:13;34.80;81.10
32400;DHT22;45045;45.440;9.178;2023-07-20T14:07:41;34.90;81.00
32400;DHT22;45045;45.440;9.178;2023-07-20T14:10:08;35.00;80.60
32400;DHT22;45045;45.440;9.178;2023-07-20T14:12:34;35.10;80.30
32400;DHT22;45045;45.440;9.178;2023-07-20T14:15:00;35.10;80.20
32400;DHT22;45045;45.440;9.178;2023-07-20T14:17:25;35.00;80.50
32400;DHT22;45045;45.440;9.178;2023-07-20T14:19:52;35.00;80.90
32400;DHT22;45045;45.440;9.178;2023-07-20T14:22:18;35.10;81.10
32400;DHT22;45045;45.440;9.178;2023-07-20T14:24:44;35.10;80.60
32400;DHT22;45045;45.440;9.178;2023-07-20T14:27:09;35.10;80.50
32400;DHT22;45045;45.440;9.178;2023-07-20T14:29:35;35.00;81.10
32400;DHT22;45045;45.440;9.178;2023-07-20T14:32:02;35.00;80.90
32400;DHT22;45045;45.440;9.178;2023-07-20T14:34:29;35.10;80.10
32400;DHT22;45045;45.440;9.178;2023-07-20T14:36:54;35.00;80.30
32400;DHT22;45045;45.440;9.178;2023-07-20T14:39:20;35.10;78.80
32400;DHT22;45045;45.440;9.178;2023-07-20T14:41:46;35.10;77.90
32400;DHT22;45045;45.440;9.178;2023-07-20T14:44:11;35.10;79.10
32400;DHT22;45045;45.440;9.178;2023-07-20T14:46:37;35.00;78.10
32400;DHT22;45045;45.440;9.178;2023-07-20T14:49:02;35.00;78.60
32400;DHT22;45045;45.440;9.178;2023-07-20T14:51:28;34.90;78.70
32400;DHT22;45045;45.440;9.178;2023-07-20T14:53:59;35.00;78.20
32400;DHT22;45045;45.440;9.178;2023-07-20T14:56:25;35.00;78.30
32400;DHT22;45045;45.440;9.178;2023-07-20T14:58:51;35.10;75.60
32400;DHT22;45045;45.440;9.178;2023-07-20T15:01:16;35.10;72.10
32400;DHT22;45045;45.440;9.178;2023-07-20T15:03:42;35.20;74.40
32400;DHT22;45045;45.440;9.178;2023-07-20T15:06:10;35.20;72.00
32400;DHT22;45045;45.440;9.178;2023-07-20T15:08:37;35.00;75.20
32400;DHT22;45045;45.440;9.178;2023-07-20T15:11:02;35.00;74.40
32400;DHT22;45045;45.440;9.178;2023-07-20T15:13:28;35.00;73.20
32400;DHT22;45045;45.440;9.178;2023-07-20T15:15:54;35.10;73.00
32400;DHT22;45045;45.440;9.178;2023-07-20T15:18:19;35.10;73.30
32400;DHT22;45045;45.440;9.178;2023-07-20T15:20:45;35.20;73.90
32400;DHT22;45045;45.440;9.178;2023-07-20T15:23:11;35.20;73.10
32400;DHT22;45045;45.440;9.178;2023-07-20T15:25:37;35.20;73.00
32400;DHT22;45045;45.440;9.178;2023-07-20T15:28:02;35.20;73.30
32400;DHT22;45045;45.440;9.178;2023-07-20T15:30:28;35.20;74.00
32400;DHT22;45045;45.440;9.178;2023-07-20T15:32:55;35.20;74.40
32400;DHT22;45045;45.440;9.178;2023-07-20T15:35:23;35.20;72.10
32400;DHT22;45045;45.440;9.178;2023-07-20T15:37:48;35.10;74.00
32400;DHT22;45045;45.440;9.178;2023-07-20T15:40:14;35.20;73.60
32400;DHT22;45045;45.440;9.178;2023-07-20T15:42:40;35.30;73.40
32400;DHT22;45045;45.440;9.178;2023-07-20T15:45:06;35.30;73.50